Time;durP1;ratioP1;P1;durP2;ratioP2;P2;SDS_P1;SDS_P2;PMS_P1;PMS_P2;Temp;Humidity;BMP_temperature;BMP_pressure;BME280_temperature;BME280_humidity;BME280_pressure;Samples;Min_cycle;Max_cycle;Signal;HPM_P1;HPM_P2
2023/06/12 00:01:02;;;;;;;0.95;0.95;;;16.60;99.90;;;;;;5061332;28;20244;-79
2023/06/12 00:03:29;;;;;;;0.10;0.10;;;16.50;99.90;;;;;;5060056;28;20013;-82
2023/06/12 00:06:00;;;;;;;0.38;0.38;;;16.40;99.90;;;;;;5061366;28;20458;-82
2023/06/12 00:08:27;;;;;;;0.10;0.10;;;16.40;99.90;;;;;;5061479;28;20198;-83
2023/06/12 00:10:53;;;;;;;0.10;0.10;;;16.50;99.90;;;;;;5060592;28;20494;-85
2023/06/12 00:13:19;;;;;;;0.10;0.10;;;16.50;99.90;;;;;;5060659;28;20038;-87
2023/06/12 00:15:45;;;;;;;0.20;0.20;;;16.50;99.90;;;;;;5061227;28;20029;-85
2023/06/12 00:18:12;;;;;;;0.10;0.10;;;16.50;99.90;;;;;;5061630;28;20313;-81
2023/06/12 00:20:38;;;;;;;0.20;0.20;;;16.50;99.90;;;;;;5061257;28;20483;-78
2023/06/12 00:23:04;;;;;;;0.10;0.10;;;16.50;99.90;;;;;;5049114;28;20048;-88
2023/06/12 00:25:30;;;;;;;2.58;2.45;;;16.50;99.90;;;;;;5068457;28;20594;-81
2023/06/12 00:27:56;;;;;;;2.45;0.93;;;16.50;99.90;;;;;;5048931;28;20052;-77
2023/06/12 00:30:22;;;;;;;4.15;3.88;;;16.50;99.90;;;;;;5045181;28;20419;-77
2023/06/12 00:32:47;;;;;;;0.20;0.20;;;16.50;99.90;;;;;;5047466;28;20620;-80
2023/06/12 00:35:15;;;;;;;0.10;0.10;;;16.50;99.90;;;;;;5063207;28;20515;-80
2023/06/12 00:37:42;;;;;;;2.97;2.67;;;16.50;99.90;;;;;;5066117;28;20077;-77
2023/06/12 00:40:11;;;;;;;3.85;3.65;;;16.50;99.90;;;;;;5046141;28;20363;-77
2023/06/12 00:42:45;;;;;;;0.20;0.20;;;16.50;99.90;;;;;;5046566;28;20120;-81
2023/06/12 00:45:13;;;;;;;0.10;0.10;;;16.50;99.90;;;;;;5061980;28;20047;-80
2023/06/12 00:47:39;;;;;;;0.20;0.20;;;16.50;99.90;;;;;;5043223;28;20013;-84
2023/06/12 00:50:09;;;;;;;0.20;0.20;;;16.50;99.90;;;;;;5060434;28;20024;-78
2023/06/12 00:52:36;;;;;;;0.10;0.10;;;16.50;99.90;;;;;;5061653;28;20025;-88
2023/06/12 00:55:02;;;;;;;0.20;0.20;;;16.50;99.90;;;;;;5059944;28;20051;-77
2023/06/12 00:57:28;;;;;;;0.77;0.77;;;16.50;99.90;;;;;;5063232;28;20020;-77
2023/06/12 00:59:54;;;;;;;0.20;0.20;;;16.50;99.90;;;;;;5042521;28;20202;-79
2023/06/12 01:02:22;;;;;;;2.15;2.05;;;16.50;99.90;;;;;;5041684;28;20028;-82
2023/06/12 01:04:49;;;;;;;0.10;0.10;;;16.50;99.90;;;;;;5059966;28;20020;-80
2023/06/12 01:07:29;;;;;;;0.47;0.47;;;16.40;99.90;;;;;;5025687;28;20059;-82
2023/06/12 01:10:33;;;;;;;0.10;0.10;;;16.40;99.90;;;;;;5043720;28;20055;-79
2023/06/12 01:13:00;;;;;;;0.10;0.10;;;16.40;99.90;;;;;;5059422;28;20024;-80
2023/06/12 01:15:26;;;;;;;1.48;1.38;;;16.50;99.90;;;;;;5059682;28;20016;-77
2023/06/12 01:17:51;;;;;;;0.10;0.10;;;16.50;99.90;;;;;;5041657;28;20426;-80
2023/06/12 01:20:18;;;;;;;0.10;0.10;;;;;;;;;;5059679;28;20052;-81
2023/06/12 01:23:20;;;;;;;0.10;0.10;;;16.50;99.90;;;;;;5059816;28;20023;-85
2023/06/12 01:26:05;;;;;;;0.20;0.20;;;16.60;99.90;;;;;;5059091;28;20414;-77
2023/06/12 01:29:15;;;;;;;1.73;1.67;;;16.60;99.90;;;;;;5058976;28;20032;-81
2023/06/12 01:31:56;;;;;;;0.35;0.35;;;16.60;99.90;;;;;;5058597;28;20040;-85
2023/06/12 01:34:32;;;;;;;0.20;0.20;;;16.60;99.90;;;;;;5059531;28;20547;-82
2023/06/12 01:37:13;;;;;;;0.20;0.20;;;16.10;99.90;;;;;;5041631;28;20024;-76
2023/06/12 01:39:42;;;;;;;0.10;0.10;;;16.60;99.90;;;;;;5059175;28;20115;-86
2023/06/12 01:42:12;;;;;;;0.10;0.10;;;16.60;99.90;;;;;;5059269;28;20024;-77
2023/06/12 01:44:37;;;;;;;0.10;0.10;;;16.60;99.90;;;;;;5062876;28;20559;-79
2023/06/12 01:47:04;;;;;;;0.80;0.80;;;16.60;99.90;;;;;;5064497;28;20038;-80
2023/06/12 01:49:30;;;;;;;0.10;0.10;;;15.70;99.90;;;;;;5064214;28;20098;-77
2023/06/12 01:51:55;;;;;;;0.15;0.15;;;16.60;99.90;;;;;;5065512;28;20341;-82
2023/06/12 01:54:22;;;;;;;0.10;0.10;;;16.50;99.90;;;;;;5043571;28;20060;-77
2023/06/12 01:56:51;;;;;;;0.10;0.10;;;16.50;99.90;;;;;;5041972;28;20529;-77
2023/06/12 01:59:20;;;;;;;0.10;0.10;;;16.50;99.90;;;;;;5040364;28;20059;-81
2023/06/12 02:01:46;;;;;;;0.10;0.10;;;15.10;99.90;;;;;;5059678;28;20259;-78
2023/06/12 02:04:13;;;;;;;0.75;0.75;;;16.50;99.90;;;;;;5059389;28;20052;-76
2023/06/12 02:06:39;;;;;;;0.10;0.10;;;16.50;99.90;;;;;;5059612;28;20297;-77
2023/06/12 02:09:05;;;;;;;0.10;0.10;;;16.50;99.90;;;;;;5041408;28;20020;-76
2023/06/12 02:11:32;;;;;;;0.20;0.20;;;17.00;99.90;;;;;;5063033;28;20107;-76
2023/06/12 02:13:58;;;;;;;0.20;0.20;;;16.50;99.90;;;;;;5062667;28;20355;-78
2023/06/12 02:16:24;;;;;;;0.10;0.10;;;;;;;;;;5044095;28;20025;-77
2023/06/12 02:18:50;;;;;;;0.30;0.30;;;16.50;99.90;;;;;;5062620;28;20096;-86
2023/06/12 02:21:16;;;;;;;1.58;1.55;;;16.50;99.90;;;;;;5046550;28;20112;-78
2023/06/12 02:23:41;;;;;;;0.30;0.30;;;16.50;99.90;;;;;;5046211;28;20077;-78
2023/06/12 02:26:07;;;;;;;1.90;1.80;;;16.40;99.90;;;;;;5063757;28;20028;-83
2023/06/12 02:28:33;;;;;;;33.22;17.95;;;16.50;99.90;;;;;;5065994;28;20021;-78
2023/06/12 02:31:00;;;;;;;5.28;4.60;;;16.40;99.90;;;;;;5049813;28;20025;-81
2023/06/12 02:33:30;;;;;;;0.20;0.20;;;16.40;99.90;;;;;;5067763;28;20048;-80
2023/06/12 02:35:56;;;;;;;0.55;0.55;;;18.10;99.90;;;;;;5067298;28;20293;-79
2023/06/12 02:38:21;;;;;;;0.20;0.20;;;16.20;99.90;;;;;;5067587;28;20049;-84
2023/06/12 02:40:47;;;;;;;0.13;0.13;;;16.30;99.90;;;;;;5067906;28;20047;-80
2023/06/12 02:43:13;;;;;;;0.10;0.10;;;16.30;99.90;;;;;;5067829;28;20086;-80
2023/06/12 02:45:38;;;;;;;0.20;0.20;;;16.30;99.90;;;;;;5067152;28;20016;-82
2023/06/12 02:48:04;;;;;;;0.20;0.20;;;16.30;99.90;;;;;;5065535;28;20039;-85
2023/06/12 02:50:30;;;;;;;0.10;0.10;;;16.30;99.90;;;;;;5064648;28;20033;-78
2023/06/12 02:52:56;;;;;;;1.50;1.40;;;15.40;99.90;;;;;;5046047;28;20017;-83
2023/06/12 02:55:21;;;;;;;0.20;0.20;;;16.70;99.90;;;;;;5063927;28;20036;-83
2023/06/12 02:57:47;;;;;;;0.35;0.35;;;15.80;99.90;;;;;;5064123;28;20071;-80
2023/06/12 03:00:14;;;;;;;0.10;0.10;;;16.40;99.90;;;;;;5063724;28;20021;-80
2023/06/12 03:02:42;;;;;;;0.10;0.10;;;16.40;99.90;;;;;;5062640;28;20285;-85
2023/06/12 03:05:12;;;;;;;1.02;1.02;;;16.40;99.90;;;;;;5045099;28;20097;-86
2023/06/12 03:07:40;;;;;;;0.10;0.10;;;16.40;99.90;;;;;;5045190;28;20325;-81
2023/06/12 03:10:07;;;;;;;0.20;0.20;;;16.40;99.90;;;;;;5061956;28;20352;-81
2023/06/12 03:12:33;;;;;;;0.10;0.10;;;16.40;99.90;;;;;;5062485;28;20032;-81
2023/06/12 03:15:00;;;;;;;0.10;0.10;;;16.40;99.90;;;;;;5043267;28;20020;-78
2023/06/12 03:17:26;;;;;;;0.10;0.10;;;16.40;99.90;;;;;;5060928;28;20112;-84
2023/06/12 03:19:51;;;;;;;8.20;3.30;;;16.30;99.90;;;;;;5044068;28;20107;-79
2023/06/12 03:22:17;;;;;;;0.20;0.20;;;16.30;99.90;;;;;;5060335;28;20021;-81
2023/06/12 03:24:46;;;;;;;0.10;0.10;;;15.70;99.90;;;;;;5061724;28;20016;-85
2023/06/12 03:27:12;;;;;;;3.53;3.33;;;16.30;99.90;;;;;;5061460;28;20029;-83
2023/06/12 03:29:37;;;;;;;0.20;0.20;;;16.30;99.90;;;;;;5061434;28;20056;-85
2023/06/12 03:32:04;;;;;;;4.97;3.13;;;16.30;99.90;;;;;;5061191;28;20095;-84
2023/06/12 03:34:31;;;;;;;0.20;0.20;;;16.30;99.90;;;;;;5061193;28;20028;-81
2023/06/12 03:36:57;;;;;;;0.20;0.20;;;16.30;99.90;;;;;;5042907;28;20086;-81
2023/06/12 03:39:23;;;;;;;0.10;0.10;;;16.30;99.90;;;;;;5060538;28;20433;-77
2023/06/12 03:41:56;;;;;;;0.10;0.10;;;16.30;99.90;;;;;;5060437;28;20033;-80
2023/06/12 03:44:22;;;;;;;0.30;0.30;;;16.40;99.90;;;;;;5060853;28;20024;-76
2023/06/12 03:46:48;;;;;;;1.00;1.00;;;16.50;99.90;;;;;;5059760;28;20081;-79
2023/06/12 03:49:14;;;;;;;0.10;0.10;;;13.30;99.90;;;;;;5060771;28;20300;-78
2023/06/12 03:51:40;;;;;;;0.20;0.20;;;16.40;99.90;;;;;;5060831;28;20383;-75
2023/06/12 03:54:07;;;;;;;0.52;0.52;;;16.40;99.90;;;;;;5043577;28;20051;-76
2023/06/12 03:56:33;;;;;;;0.20;0.20;;;16.40;99.90;;;;;;5060531;28;20032;-76
2023/06/12 03:59:00;;;;;;;0.40;0.40;;;16.40;99.90;;;;;;5061134;28;20020;-82
2023/06/12 04:01:26;;;;;;;0.22;0.22;;;16.40;99.90;;;;;;5060303;28;20039;-81
2023/06/12 04:03:53;;;;;;;0.10;0.10;;;16.40;99.90;;;;;;5042579;28;20114;-83
2023/06/12 04:06:24;;;;;;;0.20;0.20;;;16.40;99.90;;;;;;5060220;28;20016;-78
2023/06/12 04:08:53;;;;;;;0.20;0.20;;;16.40;99.90;;;;;;5043021;28;20544;-82
2023/06/12 04:11:22;;;;;;;0.30;0.30;;;16.40;99.90;;;;;;5059899;28;20043;-77
2023/06/12 04:13:48;;;;;;;0.47;0.47;;;16.40;99.90;;;;;;5059651;28;20021;-83
2023/06/12 04:16:13;;;;;;;0.20;0.20;;;16.40;99.90;;;;;;5025103;28;20133;-86
2023/06/12 04:18:39;;;;;;;0.17;0.17;;;16.50;99.90;;;;;;5042485;28;20017;-79
2023/06/12 04:21:06;;;;;;;0.17;0.17;;;16.40;99.90;;;;;;5042153;28;20028;-77
2023/06/12 04:23:33;;;;;;;0.40;0.40;;;16.50;99.90;;;;;;5059963;28;20035;-82
2023/06/12 04:26:04;;;;;;;0.20;0.20;;;16.50;99.90;;;;;;5059812;28;20027;-77
2023/06/12 04:28:34;;;;;;;0.10;0.10;;;16.50;99.90;;;;;;5059941;28;20025;-78
2023/06/12 04:31:01;;;;;;;0.10;0.10;;;16.50;99.90;;;;;;5059447;28;20032;-78
2023/06/12 04:33:30;;;;;;;0.32;0.32;;;16.50;99.90;;;;;;5040636;28;20613;-82
2023/06/12 04:36:02;;;;;;;0.10;0.10;;;16.50;99.90;;;;;;5042051;28;20203;-83
2023/06/12 04:38:31;;;;;;;1.00;0.93;;;15.40;99.90;;;;;;5060454;28;20461;-77
2023/06/12 04:40:58;;;;;;;1.48;1.38;;;16.50;99.90;;;;;;5042114;28;20063;-79
2023/06/12 04:43:25;;;;;;;1.40;1.35;;;16.50;99.90;;;;;;5060390;28;20275;-76
2023/06/12 04:45:53;;;;;;;2.25;2.10;;;16.60;99.90;;;;;;5059829;28;20099;-82
2023/06/12 04:48:20;;;;;;;0.50;0.50;;;16.60;99.90;;;;;;5060775;28;20021;-79
2023/06/12 04:50:54;;;;;;;0.20;0.20;;;16.70;99.90;;;;;;5061062;28;20047;-79
2023/06/12 04:53:27;;;;;;;0.10;0.10;;;16.60;99.90;;;;;;5042461;28;20027;-77
2023/06/12 04:55:56;;;;;;;0.20;0.20;;;16.80;99.90;;;;;;5041894;28;20421;-84
2023/06/12 04:58:22;;;;;;;0.10;0.10;;;16.70;99.90;;;;;;5026925;28;20033;-82
2023/06/12 05:00:49;;;;;;;0.20;0.20;;;16.70;99.90;;;;;;5042177;28;20040;-78
2023/06/12 05:03:20;;;;;;;4.07;1.55;;;16.70;99.90;;;;;;5060439;28;20012;-78
2023/06/12 05:05:48;;;;;;;0.38;0.38;;;16.80;99.90;;;;;;5041369;28;20387;-77
2023/06/12 05:08:14;;;;;;;2.60;2.40;;;16.70;99.90;;;;;;5059550;28;20036;-89
2023/06/12 05:10:40;;;;;;;0.15;0.15;;;16.80;99.90;;;;;;5043215;28;20274;-87
2023/06/12 05:13:06;;;;;;;0.93;0.93;;;16.80;99.90;;;;;;5027632;28;20024;-84
2023/06/12 05:15:32;;;;;;;1.58;1.48;;;16.80;99.90;;;;;;5060078;28;20017;-90
2023/06/12 05:17:58;;;;;;;0.60;0.60;;;;;;;;;;5065279;28;20256;-79
2023/06/12 05:20:25;;;;;;;0.10;0.10;;;16.80;99.90;;;;;;5075434;28;20191;-83
2023/06/12 05:22:51;;;;;;;0.40;0.40;;;16.80;99.90;;;;;;5059145;28;20021;-83
2023/06/12 05:25:17;;;;;;;0.10;0.10;;;16.80;99.90;;;;;;5075663;28;20162;-81
2023/06/12 05:27:42;;;;;;;0.20;0.20;;;16.90;99.90;;;;;;5077170;28;20096;-82
2023/06/12 05:30:09;;;;;;;1.35;1.17;;;16.90;99.90;;;;;;5075625;28;20028;-82
2023/06/12 05:32:35;;;;;;;0.10;0.10;;;16.90;99.90;;;;;;5056585;28;20040;-88
2023/06/12 05:35:02;;;;;;;0.10;0.10;;;16.90;99.90;;;;;;5028848;28;20033;-86
2023/06/12 05:37:28;;;;;;;0.55;0.55;;;16.90;99.90;;;;;;5063040;28;20024;-88
2023/06/12 05:39:54;;;;;;;0.13;0.13;;;16.90;99.90;;;;;;5062129;28;20108;-78
2023/06/12 05:42:20;;;;;;;0.10;0.10;;;16.90;99.90;;;;;;5041854;28;20031;-85
2023/06/12 05:44:46;;;;;;;0.20;0.20;;;16.80;99.90;;;;;;5062984;28;20127;-88
2023/06/12 05:47:12;;;;;;;0.75;0.75;;;19.20;99.90;;;;;;5066923;28;20111;-81
2023/06/12 05:49:38;;;;;;;0.73;0.73;;;16.80;99.90;;;;;;5045964;28;20532;-85
2023/06/12 05:52:06;;;;;;;0.50;0.50;;;16.80;99.90;;;;;;5063629;28;20036;-79
2023/06/12 05:54:32;;;;;;;0.10;0.10;;;16.80;99.90;;;;;;5064193;28;20040;-80
2023/06/12 05:56:57;;;;;;;0.10;0.10;;;16.80;99.90;;;;;;5063315;28;20568;-91
2023/06/12 05:59:23;;;;;;;0.25;0.25;;;16.90;99.90;;;;;;5063850;28;20296;-81
2023/06/12 06:01:50;;;;;;;0.57;0.57;;;16.90;99.90;;;;;;5064351;28;20505;-92
2023/06/12 06:04:16;;;;;;;0.38;0.38;;;16.80;99.90;;;;;;5063595;28;20020;-76
2023/06/12 06:06:42;;;;;;;0.50;0.50;;;16.90;99.90;;;;;;5044586;28;20021;-86
2023/06/12 06:09:08;;;;;;;0.40;0.40;;;16.90;99.90;;;;;;5063285;28;20182;-91
2023/06/12 06:11:34;;;;;;;0.10;0.10;;;16.90;99.90;;;;;;5063403;28;20440;-84
2023/06/12 06:14:00;;;;;;;0.15;0.15;;;17.00;99.90;;;;;;5045343;28;20020;-87
2023/06/12 06:16:26;;;;;;;0.10;0.10;;;17.00;99.90;;;;;;5063051;28;20023;-82
2023/06/12 06:18:52;;;;;;;1.73;1.65;;;17.00;99.90;;;;;;5045519;28;20065;-81
2023/06/12 06:21:18;;;;;;;0.35;0.35;;;17.00;99.90;;;;;;5062964;28;20027;-87
2023/06/12 06:23:44;;;;;;;0.10;0.10;;;17.00;99.90;;;;;;5062201;28;20417;-80
2023/06/12 06:26:10;;;;;;;0.47;0.47;;;17.10;99.90;;;;;;5061472;28;20063;-80
2023/06/12 06:28:39;;;;;;;0.20;0.20;;;17.10;99.90;;;;;;5060726;28;20024;-78
2023/06/12 06:31:06;;;;;;;0.10;0.10;;;17.10;99.90;;;;;;5044369;28;20040;-77
2023/06/12 06:33:32;;;;;;;0.13;0.13;;;19.80;99.90;;;;;;5063891;28;20029;-77
2023/06/12 06:35:59;;;;;;;0.13;0.13;;;17.10;99.90;;;;;;5044287;28;20467;-81
2023/06/12 06:38:31;;;;;;;0.25;0.25;;;17.10;99.90;;;;;;5065376;28;20151;-78
2023/06/12 06:40:57;;;;;;;0.10;0.10;;;13.80;99.90;;;;;;5043479;28;20583;-79
2023/06/12 06:43:23;;;;;;;0.10;0.10;;;17.10;99.90;;;;;;5061330;28;20733;-77
2023/06/12 06:45:49;;;;;;;2.10;2.00;;;17.20;99.90;;;;;;5060764;28;20023;-78
2023/06/12 06:48:15;;;;;;;0.40;0.40;;;;;;;;;;5042238;28;20020;-79
2023/06/12 06:50:45;;;;;;;0.20;0.20;;;18.00;99.90;;;;;;5060261;28;20297;-78
2023/06/12 06:53:11;;;;;;;0.20;0.20;;;17.30;99.90;;;;;;5060640;28;20150;-77
2023/06/12 06:55:37;;;;;;;0.20;0.20;;;17.40;99.90;;;;;;5042665;28;20135;-86
2023/06/12 06:58:04;;;;;;;0.63;0.63;;;17.40;99.90;;;;;;5060966;28;20313;-85
2023/06/12 07:00:32;;;;;;;0.20;0.20;;;17.60;99.90;;;;;;5042350;28;20232;-77
2023/06/12 07:03:02;;;;;;;0.10;0.10;;;17.60;99.90;;;;;;5041576;28;20040;-84
2023/06/12 07:05:27;;;;;;;1.17;1.10;;;17.80;99.90;;;;;;5060924;28;20020;-82
2023/06/12 07:07:55;;;;;;;0.10;0.10;;;17.90;99.90;;;;;;5060856;28;20025;-82
2023/06/12 07:10:21;;;;;;;0.55;0.55;;;18.00;99.90;;;;;;5061346;28;20025;-80
2023/06/12 07:12:48;;;;;;;0.10;0.10;;;18.10;99.90;;;;;;5061069;28;20025;-85
2023/06/12 07:15:13;;;;;;;0.50;0.50;;;18.10;99.90;;;;;;5060395;28;20009;-81
2023/06/12 07:17:39;;;;;;;0.57;0.57;;;18.10;99.90;;;;;;5060442;28;20546;-85
2023/06/12 07:20:13;;;;;;;0.30;0.30;;;18.20;99.90;;;;;;5060302;28;20021;-83
2023/06/12 07:22:39;;;;;;;0.40;0.40;;;18.30;99.90;;;;;;5064136;28;20597;-79
2023/06/12 07:25:05;;;;;;;0.10;0.10;;;18.30;99.90;;;;;;5062478;28;20067;-77
2023/06/12 07:27:34;;;;;;;0.40;0.40;;;18.40;99.90;;;;;;5060348;28;20131;-82
2023/06/12 07:30:04;;;;;;;0.65;0.65;;;18.30;99.90;;;;;;5060717;28;20667;-82
2023/06/12 07:32:30;;;;;;;0.10;0.10;;;18.30;99.90;;;;;;5060474;28;20032;-82
2023/06/12 07:34:55;;;;;;;0.77;0.77;;;18.20;99.90;;;;;;5042761;28;20039;-84
2023/06/12 07:37:22;;;;;;;0.25;0.25;;;18.30;99.90;;;;;;5060520;28;20104;-86
2023/06/12 07:39:49;;;;;;;3.10;2.28;;;18.30;99.90;;;;;;5060792;28;20023;-80
2023/06/12 07:42:20;;;;;;;0.47;0.47;;;18.20;99.90;;;;;;5059973;28;20077;-78
2023/06/12 07:44:51;;;;;;;0.10;0.10;;;18.30;99.90;;;;;;5042804;28;20115;-84
2023/06/12 07:47:17;;;;;;;0.20;0.20;;;18.30;99.90;;;;;;5060451;28;20021;-84
2023/06/12 07:49:45;;;;;;;0.20;0.20;;;18.30;99.90;;;;;;5060459;28;20082;-78
2023/06/12 07:52:12;;;;;;;0.10;0.10;;;;;;;;;;5059790;28;20119;-84
2023/06/12 07:54:37;;;;;;;0.98;0.98;;;18.30;99.90;;;;;;5059958;28;20048;-83
2023/06/12 07:57:06;;;;;;;0.22;0.22;;;18.40;99.90;;;;;;5059877;28;20025;-81
2023/06/12 07:59:32;;;;;;;0.10;0.10;;;18.20;99.90;;;;;;5061337;28;20085;-78
2023/06/12 08:01:58;;;;;;;0.10;0.10;;;18.30;99.90;;;;;;5062985;28;20028;-82
2023/06/12 08:04:58;;;;;;;0.43;0.43;;;18.30;99.90;;;;;;5045153;28;20024;-87
2023/06/12 08:07:30;;;;;;;0.10;0.10;;;18.30;99.90;;;;;;4961900;28;20089;-85
2023/06/12 08:09:56;;;;;;;0.20;0.20;;;18.40;99.90;;;;;;4958754;28;20118;-78
2023/06/12 08:12:22;;;;;;;0.30;0.30;;;18.30;99.90;;;;;;4958576;28;20298;-78
2023/06/12 08:14:49;;;;;;;0.10;0.10;;;18.70;99.90;;;;;;4958800;28;20081;-78
2023/06/12 08:17:15;;;;;;;0.73;0.70;;;18.40;99.90;;;;;;4942781;28;20033;-78
2023/06/12 08:19:41;;;;;;;0.10;0.10;;;18.50;99.90;;;;;;4958880;28;20037;-82
2023/06/12 08:22:11;;;;;;;0.10;0.10;;;18.60;99.90;;;;;;4958352;28;20027;-78
2023/06/12 08:24:41;;;;;;;0.10;0.10;;;18.70;99.90;;;;;;4959242;28;20035;-83
2023/06/12 08:27:07;;;;;;;1.20;1.05;;;18.80;99.90;;;;;;4959271;28;20027;-79
2023/06/12 08:29:35;;;;;;;0.10;0.10;;;18.70;99.90;;;;;;4958614;28;20441;-82
2023/06/12 08:32:03;;;;;;;0.10;0.10;;;18.70;99.90;;;;;;4942057;28;20721;-78
2023/06/12 08:34:31;;;;;;;0.10;0.10;;;18.90;99.90;;;;;;4958657;28;20019;-78
2023/06/12 08:36:57;;;;;;;0.30;0.30;;;16.80;99.90;;;;;;4942676;28;20027;-81
2023/06/12 08:39:23;;;;;;;0.35;0.35;;;18.90;99.90;;;;;;4959621;28;20033;-85
2023/06/12 08:42:03;;;;;;;0.98;0.90;;;18.90;99.90;;;;;;4942722;28;20115;-79
2023/06/12 08:44:30;;;;;;;0.22;0.22;;;18.90;99.90;;;;;;5013212;28;20028;-77
2023/06/12 08:46:58;;;;;;;0.10;0.10;;;19.10;99.90;;;;;;5059353;28;20078;-78
2023/06/12 08:49:29;;;;;;;0.28;0.25;;;18.90;99.90;;;;;;5043165;28;20050;-87
2023/06/12 08:51:55;;;;;;;0.10;0.10;;;18.90;99.90;;;;;;5060408;28;20107;-81
2023/06/12 08:54:21;;;;;;;0.17;0.17;;;19.00;99.90;;;;;;5060002;28;20121;-84
2023/06/12 08:56:47;;;;;;;0.10;0.10;;;22.00;99.90;;;;;;5041560;28;20012;-86
2023/06/12 08:59:14;;;;;;;0.10;0.10;;;18.80;99.90;;;;;;5059403;28;20031;-84
2023/06/12 09:01:40;;;;;;;0.20;0.20;;;18.80;99.90;;;;;;5059177;28;20020;-86
2023/06/12 09:04:14;;;;;;;0.10;0.10;;;18.90;99.90;;;;;;5059906;28;20040;-89
2023/06/12 09:06:42;;;;;;;0.10;0.10;;;18.90;99.90;;;;;;5025631;28;20012;-82
2023/06/12 09:09:08;;;;;;;0.10;0.10;;;18.90;99.90;;;;;;5059542;28;20025;-86
2023/06/12 09:11:37;;;;;;;0.10;0.10;;;19.80;99.90;;;;;;5059960;28;20094;-77
2023/06/12 09:14:03;;;;;;;0.10;0.10;;;19.00;99.90;;;;;;5043688;28;20059;-82
2023/06/12 09:16:32;;;;;;;0.43;0.43;;;18.90;99.90;;;;;;5040885;28;20020;-75
2023/06/12 09:19:02;;;;;;;0.10;0.10;;;19.00;99.90;;;;;;5059174;28;20241;-83
2023/06/12 09:21:31;;;;;;;0.20;0.20;;;19.00;99.90;;;;;;5059314;28;20028;-86
2023/06/12 09:23:57;;;;;;;0.10;0.10;;;19.00;99.90;;;;;;5060599;28;20024;-80
2023/06/12 09:26:22;;;;;;;0.70;0.70;;;19.00;99.90;;;;;;5059009;28;20012;-78
2023/06/12 09:28:52;;;;;;;0.10;0.10;;;18.90;99.90;;;;;;5060307;28;20052;-83
2023/06/12 09:31:18;;;;;;;0.10;0.10;;;18.90;99.90;;;;;;5042145;28;20032;-77
2023/06/12 09:33:50;;;;;;;0.10;0.10;;;18.90;99.90;;;;;;5041240;28;20078;-87
2023/06/12 09:36:20;;;;;;;0.10;0.10;;;18.20;99.90;;;;;;5059210;28;20660;-85
2023/06/12 09:38:48;;;;;;;0.10;0.10;;;18.70;99.90;;;;;;5058788;28;20096;-80
2023/06/12 09:41:14;;;;;;;0.10;0.10;;;16.40;99.90;;;;;;5059347;28;20051;-81
2023/06/12 09:43:40;;;;;;;0.10;0.10;;;18.60;99.90;;;;;;5044637;28;20063;-78
2023/06/12 09:46:08;;;;;;;0.10;0.10;;;18.60;99.90;;;;;;5045829;28;20016;-79
2023/06/12 09:48:56;;;;;;;0.10;0.10;;;18.50;99.90;;;;;;5040812;28;20028;-75
2023/06/12 09:51:23;;;;;;;0.10;0.10;;;18.80;99.90;;;;;;5059012;28;20245;-75
2023/06/12 09:53:53;;;;;;;0.10;0.10;;;18.90;99.90;;;;;;5057934;28;20574;-76
2023/06/12 09:56:20;;;;;;;0.10;0.10;;;19.00;99.90;;;;;;5059343;28;20072;-77
2023/06/12 09:58:48;;;;;;;0.10;0.10;;;19.10;99.90;;;;;;5048278;28;20702;-75
2023/06/12 10:01:17;;;;;;;0.10;0.10;;;19.00;99.90;;;;;;5058095;28;20040;-80
2023/06/12 10:03:44;;;;;;;0.10;0.10;;;19.00;99.90;;;;;;5039030;28;20449;-77
2023/06/12 10:06:13;;;;;;;0.10;0.10;;;19.10;99.90;;;;;;5042042;28;20040;-77
2023/06/12 10:08:40;;;;;;;0.10;0.10;;;19.10;99.90;;;;;;5041971;28;20021;-75
2023/06/12 10:11:11;;;;;;;0.10;0.10;;;19.20;99.90;;;;;;5039097;28;20041;-80
2023/06/12 10:13:39;;;;;;;0.25;0.25;;;19.20;99.90;;;;;;5057513;28;20091;-84
2023/06/12 10:16:05;;;;;;;0.10;0.10;;;19.10;99.90;;;;;;5057364;28;20249;-80
2023/06/12 10:18:32;;;;;;;0.10;0.10;;;19.20;99.90;;;;;;5057557;28;20020;-81
2023/06/12 10:21:00;;;;;;;0.10;0.10;;;19.30;99.90;;;;;;5057720;28;20108;-77
2023/06/12 10:23:26;;;;;;;0.10;0.10;;;19.20;99.90;;;;;;5039215;28;20039;-77
2023/06/12 10:25:53;;;;;;;0.10;0.10;;;19.20;99.90;;;;;;5057996;28;20025;-82
2023/06/12 10:28:19;;;;;;;0.10;0.10;;;19.40;99.90;;;;;;5061275;28;20094;-78
2023/06/12 10:31:12;;;;;;;0.10;0.10;;;19.40;99.90;;;;;;5043654;28;20695;-77
2023/06/12 10:34:05;;;;;;;0.10;0.10;;;19.30;99.90;;;;;;5060137;28;20032;-75
2023/06/12 10:36:41;;;;;;;0.10;0.10;;;19.40;99.90;;;;;;5042611;28;20341;-76
2023/06/12 10:39:23;;;;;;;0.10;0.10;;;19.20;99.90;;;;;;5060703;28;20017;-76
2023/06/12 10:41:59;;;;;;;0.10;0.10;;;18.90;99.90;;;;;;5043889;28;20024;-81
2023/06/12 10:44:35;;;;;;;0.10;0.10;;;21.50;99.90;;;;;;5061203;28;20029;-81
2023/06/12 10:47:02;;;;;;;0.17;0.17;;;19.30;99.90;;;;;;5061590;28;20029;-78
2023/06/12 10:49:29;;;;;;;0.10;0.10;;;19.10;99.90;;;;;;5043934;28;20399;-78
2023/06/12 10:51:54;;;;;;;0.10;0.10;;;18.90;99.90;;;;;;5044023;28;20224;-77
2023/06/12 10:54:37;;;;;;;0.20;0.20;;;18.90;99.90;;;;;;5043857;28;20690;-75
2023/06/12 10:57:03;;;;;;;0.10;0.10;;;18.90;99.90;;;;;;5043540;28;20111;-77
2023/06/12 10:59:36;;;;;;;0.13;0.13;;;18.90;99.90;;;;;;5061707;28;20028;-77
2023/06/12 11:02:03;;;;;;;0.10;0.10;;;19.00;99.90;;;;;;5061140;28;20027;-78
2023/06/12 11:04:38;;;;;;;0.10;0.10;;;19.10;99.90;;;;;;5061664;28;20017;-78
2023/06/12 11:07:05;;;;;;;0.10;0.10;;;19.20;99.90;;;;;;5061761;28;20031;-77
2023/06/12 11:09:46;;;;;;;0.10;0.10;;;19.20;99.90;;;;;;5044676;28;20028;-79
2023/06/12 11:12:12;;;;;;;0.10;0.10;;;19.30;99.90;;;;;;5062170;28;20107;-83
2023/06/12 11:14:40;;;;;;;0.10;0.10;;;19.40;99.90;;;;;;5061751;28;20111;-86
2023/06/12 11:17:06;;;;;;;0.10;0.10;;;17.90;99.90;;;;;;5061224;28;20036;-85
2023/06/12 11:19:34;;;;;;;0.10;0.10;;;19.30;99.90;;;;;;5061076;28;20016;-82
2023/06/12 11:22:04;;;;;;;0.10;0.10;;;19.40;99.90;;;;;;5061590;28;20023;-86
2023/06/12 11:24:29;;;;;;;0.10;0.10;;;19.40;99.90;;;;;;5044679;28;20017;-77
2023/06/12 11:26:56;;;;;;;0.10;0.10;;;19.50;99.90;;;;;;5063567;28;20663;-83
2023/06/12 11:29:24;;;;;;;0.20;0.20;;;19.50;99.90;;;;;;5045891;28;20032;-81
2023/06/12 11:32:01;;;;;;;0.10;0.10;;;19.60;99.90;;;;;;5038213;28;20036;-79
2023/06/12 11:34:37;;;;;;;0.20;0.20;;;19.60;99.90;;;;;;5066696;28;20021;-80
2023/06/12 11:37:16;;;;;;;0.10;0.10;;;19.60;99.90;;;;;;5051510;28;20023;-86
2023/06/12 11:39:43;;;;;;;0.10;0.10;;;;;;;;;;5068655;28;20017;-78
2023/06/12 11:42:11;;;;;;;0.10;0.10;;;19.70;99.90;;;;;;5046192;28;20021;-80
2023/06/12 11:44:38;;;;;;;0.10;0.10;;;19.90;99.90;;;;;;5061880;28;20027;-81
2023/06/12 11:47:12;;;;;;;0.10;0.10;;;19.30;99.90;;;;;;5042454;28;20024;-88
2023/06/12 11:49:38;;;;;;;0.15;0.15;;;19.80;99.90;;;;;;5061532;28;20025;-87
2023/06/12 11:52:12;;;;;;;0.10;0.10;;;19.90;99.90;;;;;;5060729;28;20032;-88
2023/06/12 11:55:10;;;;;;;0.10;0.10;;;21.60;99.90;;;;;;5060703;28;20033;-80
2023/06/12 11:57:45;;;;;;;0.10;0.10;;;20.10;99.90;;;;;;5060473;28;20032;-82
2023/06/12 12:00:19;;;;;;;0.32;0.32;;;20.20;99.90;;;;;;5061413;28;20028;-82
2023/06/12 12:02:52;;;;;;;0.10;0.10;;;20.30;99.90;;;;;;5059900;28;20024;-87
2023/06/12 12:05:36;;;;;;;0.25;0.25;;;20.40;99.90;;;;;;5044156;28;20013;-77
2023/06/12 12:08:04;;;;;;;0.10;0.10;;;17.40;99.90;;;;;;5060626;28;20024;-78
2023/06/12 12:10:39;;;;;;;0.10;0.10;;;20.20;99.90;;;;;;5041913;28;20221;-85
2023/06/12 12:13:05;;;;;;;0.20;0.20;;;20.10;99.90;;;;;;5060037;28;20024;-82
2023/06/12 12:15:41;;;;;;;0.10;0.10;;;20.20;99.90;;;;;;5060337;28;20021;-80
2023/06/12 12:18:16;;;;;;;0.10;0.10;;;20.10;99.90;;;;;;5059566;28;20086;-84
2023/06/12 12:20:47;;;;;;;0.10;0.10;;;20.10;99.90;;;;;;5060407;28;20020;-79
2023/06/12 12:23:13;;;;;;;2.50;1.27;;;19.90;99.90;;;;;;5062316;28;20013;-80
2023/06/12 12:25:43;;;;;;;0.22;0.22;;;19.80;99.90;;;;;;5060177;28;20679;-82
2023/06/12 12:28:08;;;;;;;0.10;0.10;;;19.60;99.90;;;;;;5059748;28;20044;-86
2023/06/12 12:30:34;;;;;;;0.20;0.20;;;19.60;99.90;;;;;;5059547;28;20040;-84
2023/06/12 12:33:00;;;;;;;0.10;0.10;;;19.60;99.90;;;;;;5059293;28;20041;-80
2023/06/12 12:35:30;;;;;;;0.10;0.10;;;19.50;99.90;;;;;;5060235;28;20025;-78
2023/06/12 12:37:57;;;;;;;0.10;0.10;;;19.60;99.90;;;;;;5043345;28;20035;-79
2023/06/12 12:40:23;;;;;;;0.88;0.80;;;20.10;99.90;;;;;;5041746;28;20025;-77
2023/06/12 12:42:52;;;;;;;0.20;0.20;;;19.30;99.90;;;;;;5059404;28;20078;-80
2023/06/12 12:45:19;;;;;;;0.10;0.10;;;21.20;99.90;;;;;;5041990;28;20413;-81
2023/06/12 12:47:47;;;;;;;0.43;0.43;;;19.00;99.90;;;;;;5059639;28;20013;-86
2023/06/12 12:50:13;;;;;;;0.13;0.13;;;20.90;99.90;;;;;;5042446;28;20024;-77
2023/06/12 12:52:40;;;;;;;0.10;0.10;;;;;;;;;;5043513;28;20028;-79
2023/06/12 12:55:12;;;;;;;0.10;0.10;;;19.80;99.90;;;;;;5058417;28;20037;-85